Time;durP1;ratioP1;P1;durP2;ratioP2;P2;SDS_P1;SDS_P2;PMS_P1;PMS_P2;Temp;Humidity;BMP_temperature;BMP_pressure;BME280_temperature;BME280_humidity;BME280_pressure;Samples;Min_cycle;Max_cycle;Signal;HPM_P1;HPM_P2
2022/09/25 00:01:08;;;;;;;5.80;4.53;;;17.30;94.00;;;;;;5035344;28;20422;-74
2022/09/25 00:03:41;;;;;;;6.80;4.93;;;17.30;93.90;;;;;;5036118;28;20468;-74
2022/09/25 00:06:13;;;;;;;7.50;4.23;;;17.30;93.90;;;;;;5035359;28;20439;-74
2022/09/25 00:08:42;;;;;;;4.53;4.13;;;17.30;93.90;;;;;;5035210;28;20422;-74
2022/09/25 00:11:12;;;;;;;3.97;3.67;;;17.30;93.90;;;;;;5034946;28;20401;-74
2022/09/25 00:13:43;;;;;;;6.30;4.90;;;17.20;93.80;;;;;;5035004;28;20409;-74
2022/09/25 00:16:14;;;;;;;6.33;4.07;;;17.30;93.90;;;;;;5036942;28;20454;-74
2022/09/25 00:21:32;;;;;;;4.60;3.93;;;17.20;93.80;;;;;;5034939;28;20414;-74
2022/09/25 00:24:04;;;;;;;4.80;3.83;;;17.20;93.80;;;;;;5036110;28;20446;-74
2022/09/25 00:26:38;;;;;;;4.63;3.73;;;17.20;93.80;;;;;;5034581;28;20439;-74
2022/09/25 00:29:12;;;;;;;5.30;4.10;;;17.20;93.80;;;;;;5034621;28;20390;-74
2022/09/25 00:31:41;;;;;;;5.63;4.33;;;17.20;93.80;;;;;;5034684;28;20418;-74
2022/09/25 00:34:07;;;;;;;4.85;3.80;;;17.20;93.70;;;;;;5087654;22;20421;-74
2022/09/25 00:36:34;;;;;;;4.37;3.30;;;17.20;93.70;;;;;;4990143;28;20827;-74
2022/09/25 00:39:07;;;;;;;4.87;4.13;;;17.20;93.70;;;;;;5009845;28;20427;-74
2022/09/25 00:41:33;;;;;;;4.43;3.47;;;17.20;93.80;;;;;;4983312;28;20436;-74
2022/09/25 00:44:23;;;;;;;3.60;3.00;;;17.20;93.70;;;;;;4981956;28;20463;-74
2022/09/25 00:46:52;;;;;;;5.57;3.30;;;17.20;93.70;;;;;;4980274;28;20447;-73
2022/09/25 00:49:23;;;;;;;4.20;3.20;;;17.20;93.70;;;;;;4977726;28;20422;-74
2022/09/25 00:52:05;;;;;;;4.43;3.50;;;17.20;93.70;;;;;;4995458;28;20766;-74
2022/09/25 00:54:39;;;;;;;4.27;3.47;;;17.20;93.70;;;;;;4977835;28;20430;-74
2022/09/25 00:57:09;;;;;;;4.80;3.40;;;17.20;93.70;;;;;;5011570;28;20531;-74
2022/09/25 00:59:45;;;;;;;4.57;2.93;;;17.20;93.70;;;;;;5013304;28;20404;-74
2022/09/25 01:02:28;;;;;;;4.97;3.80;;;17.20;93.70;;;;;;4995059;28;20921;-74
2022/09/25 01:04:58;;;;;;;4.30;2.43;;;17.20;93.70;;;;;;4995197;28;20537;-74
2022/09/25 01:07:28;;;;;;;4.63;3.10;;;17.10;93.70;;;;;;5009947;28;20425;-74
2022/09/25 01:09:58;;;;;;;4.00;3.60;;;17.20;93.80;;;;;;5015757;28;20408;-74
2022/09/25 01:12:29;;;;;;;6.10;3.83;;;17.20;93.70;;;;;;5029416;28;20443;-74
2022/09/25 01:14:56;;;;;;;4.63;3.10;;;17.20;93.70;;;;;;4989851;28;20448;-74
2022/09/25 01:17:53;;;;;;;5.13;2.80;;;17.20;93.70;;;;;;4978095;28;20420;-74
2022/09/25 01:21:04;;;;;;;3.10;2.80;;;17.20;93.70;;;;;;5000121;28;20442;-74
2022/09/25 01:24:11;;;;;;;2.60;2.40;;;17.20;93.70;;;;;;5013269;28;20503;-74
2022/09/25 01:27:05;;;;;;;3.77;2.80;;;17.20;93.70;;;;;;4994821;28;20447;-74
2022/09/25 01:29:43;;;;;;;7.07;3.90;;;17.10;93.70;;;;;;4994631;28;20859;-74
2022/09/25 01:32:16;;;;;;;3.30;2.80;;;17.10;93.70;;;;;;4996075;28;21013;-74
2022/09/25 01:35:13;;;;;;;5.53;2.87;;;17.10;93.70;;;;;;5012235;28;20585;-74
2022/09/25 01:37:49;;;;;;;5.13;2.50;;;17.10;93.70;;;;;;5012822;28;20483;-74
2022/09/25 01:40:33;;;;;;;4.03;2.30;;;17.10;94.10;;;;;;5011943;28;20482;-74
2022/09/25 01:43:15;;;;;;;4.07;2.33;;;17.10;93.70;;;;;;5012486;28;20474;-73
2022/09/25 01:45:54;;;;;;;3.50;2.50;;;17.10;93.70;;;;;;4979540;28;20482;-74
2022/09/25 01:48:25;;;;;;;2.30;2.10;;;17.10;93.70;;;;;;5010907;28;20422;-74
2022/09/25 01:51:29;;;;;;;3.23;2.00;;;17.10;93.70;;;;;;5000458;28;20447;-74
2022/09/25 01:54:03;;;;;;;7.97;2.27;;;17.10;93.70;;;;;;4978701;28;20431;-74
2022/09/25 01:57:03;;;;;;;2.87;2.20;;;17.10;93.70;;;;;;4994657;28;20504;-74
2022/09/25 02:00:07;;;;;;;6.73;2.60;;;17.10;93.70;;;;;;4981963;28;20431;-74
2022/09/25 02:02:47;;;;;;;5.07;2.07;;;17.10;93.70;;;;;;4992645;28;20462;-74
2022/09/25 02:05:45;;;;;;;5.67;2.10;;;17.00;93.70;;;;;;5003328;28;20446;-74
2022/09/25 02:08:23;;;;;;;4.43;2.50;;;17.10;93.70;;;;;;4995656;28;20473;-74
2022/09/25 02:10:59;;;;;;;5.93;2.10;;;17.00;93.70;;;;;;5012554;28;20498;-74
2022/09/25 02:13:33;;;;;;;3.50;2.10;;;17.00;93.70;;;;;;4995470;28;20442;-74
2022/09/25 02:16:06;;;;;;;5.07;1.93;;;17.00;93.60;;;;;;4992759;28;20459;-74
2022/09/25 02:21:29;;;;;;;3.40;2.00;;;17.00;93.60;;;;;;5013127;28;20506;-74
2022/09/25 02:24:04;;;;;;;3.20;1.90;;;17.00;93.60;;;;;;5007336;28;20463;-74
2022/09/25 02:26:32;;;;;;;4.20;2.20;;;17.00;93.60;;;;;;4976330;28;20467;-74
2022/09/25 02:28:59;;;;;;;5.50;1.90;;;17.00;93.60;;;;;;4992399;28;20439;-74
2022/09/25 02:31:34;;;;;;;4.37;2.10;;;17.00;93.60;;;;;;4992439;28;20477;-74
2022/09/25 02:34:08;;;;;;;3.30;1.87;;;17.00;93.60;;;;;;4981008;28;20457;-74
2022/09/25 02:36:39;;;;;;;7.80;2.10;;;17.00;93.60;;;;;;4995430;28;20454;-74
2022/09/25 02:39:08;;;;;;;2.20;1.70;;;17.00;93.60;;;;;;5008318;28;20929;-74
2022/09/25 02:41:51;;;;;;;3.57;1.90;;;17.00;93.60;;;;;;4984841;28;20449;-74
2022/09/25 02:44:38;;;;;;;3.43;1.60;;;17.00;93.60;;;;;;5021819;28;20450;-74
2022/09/25 02:47:53;;;;;;;4.50;1.70;;;17.00;93.50;;;;;;5008665;28;20426;-74
2022/09/25 02:50:25;;;;;;;6.10;2.30;;;17.00;93.60;;;;;;4994432;28;20537;-74
2022/09/25 02:53:27;;;;;;;2.60;1.97;;;17.00;93.60;;;;;;5015434;28;20430;-74
2022/09/25 02:56:07;;;;;;;4.27;2.10;;;17.00;93.60;;;;;;5011188;28;20443;-74
2022/09/25 02:58:48;;;;;;;3.10;1.80;;;17.00;93.60;;;;;;5009068;28;20459;-74
2022/09/25 03:01:19;;;;;;;7.33;2.07;;;17.00;93.50;;;;;;4975437;28;20433;-74
2022/09/25 03:03:48;;;;;;;4.40;2.00;;;16.90;93.50;;;;;;4977592;28;20990;-74
2022/09/25 03:06:15;;;;;;;3.10;1.40;;;17.00;93.50;;;;;;4994364;28;20451;-74
2022/09/25 03:08:48;;;;;;;2.57;1.60;;;17.00;93.50;;;;;;5010076;28;20427;-74
2022/09/25 03:11:20;;;;;;;2.73;1.60;;;17.00;93.50;;;;;;4991316;28;20458;-74
2022/09/25 03:13:57;;;;;;;3.53;1.73;;;17.00;93.50;;;;;;5001544;28;20427;-74
2022/09/25 03:16:26;;;;;;;5.03;1.77;;;17.00;93.50;;;;;;5011087;28;20493;-74
2022/09/25 03:18:54;;;;;;;4.13;1.67;;;17.00;93.50;;;;;;4993504;28;20428;-74
2022/09/25 03:21:20;;;;;;;4.70;1.77;;;17.00;93.50;;;;;;4992593;28;20886;-74
2022/09/25 03:23:46;;;;;;;2.70;1.80;;;17.00;93.50;;;;;;4999566;28;20810;-74
2022/09/25 03:26:14;;;;;;;4.80;1.83;;;17.00;93.50;;;;;;5014866;28;20514;-74
2022/09/25 03:28:43;;;;;;;7.73;1.93;;;17.00;93.50;;;;;;4997712;28;20478;-74
2022/09/25 03:31:33;;;;;;;3.20;1.50;;;16.90;93.50;;;;;;5008636;28;20430;-74
2022/09/25 03:33:59;;;;;;;2.23;1.40;;;16.90;93.50;;;;;;4978812;28;20949;-74
2022/09/25 03:36:28;;;;;;;1.93;1.60;;;16.90;93.50;;;;;;4994978;28;20479;-74
2022/09/25 03:38:59;;;;;;;1.93;1.70;;;16.90;93.50;;;;;;5011822;28;20483;-74
2022/09/25 03:41:31;;;;;;;5.50;1.80;;;16.90;93.50;;;;;;5031070;28;20443;-74
2022/09/25 03:43:58;;;;;;;2.60;1.60;;;16.90;93.50;;;;;;5013554;28;20469;-74
2022/09/25 03:46:29;;;;;;;3.13;1.30;;;16.90;93.50;;;;;;4995009;28;20448;-74
2022/09/25 03:48:58;;;;;;;2.23;1.37;;;16.90;93.50;;;;;;4979519;28;20423;-74
2022/09/25 03:51:30;;;;;;;2.77;1.67;;;16.90;93.50;;;;;;5015922;28;20418;-74
2022/09/25 03:53:59;;;;;;;5.70;1.90;;;16.90;93.50;;;;;;5013716;28;20438;-74
2022/09/25 03:56:28;;;;;;;3.23;1.47;;;16.90;93.50;;;;;;5030600;28;20434;-74
2022/09/25 03:58:55;;;;;;;3.53;1.47;;;16.90;93.50;;;;;;5015565;28;20425;-74
2022/09/25 04:01:25;;;;;;;4.23;1.70;;;16.90;93.50;;;;;;4978735;28;20478;-74
2022/09/25 04:03:52;;;;;;;3.50;1.70;;;16.90;93.50;;;;;;4995869;28;20451;-74
2022/09/25 04:06:23;;;;;;;5.47;2.10;;;16.90;93.50;;;;;;4996381;28;20534;-74
2022/09/25 04:08:52;;;;;;;2.37;1.90;;;16.90;93.50;;;;;;4988175;28;20858;-74
2022/09/25 04:11:23;;;;;;;4.13;2.17;;;16.90;93.50;;;;;;5005079;28;20477;-74
2022/09/25 04:13:51;;;;;;;4.70;1.33;;;16.90;93.50;;;;;;4997425;28;20459;-74
2022/09/25 04:16:19;;;;;;;2.33;1.60;;;16.90;93.60;;;;;;5034966;28;20974;-74
2022/09/25 04:18:46;;;;;;;4.50;1.63;;;16.90;93.50;;;;;;5034924;28;20444;-74
2022/09/25 04:21:15;;;;;;;2.23;1.60;;;16.80;93.50;;;;;;5024837;28;20879;-74
2022/09/25 04:24:46;;;;;;;2.87;1.50;;;16.90;93.50;;;;;;5003911;28;20450;-74
2022/09/25 04:26:30;;;;;;;6.17;1.60;;;16.90;93.50;;;;;;5003764;28;20954;-74
2022/09/25 04:29:00;;;;;;;3.90;1.60;;;16.80;93.50;;;;;;5014982;28;20461;-74
2022/09/25 04:31:27;;;;;;;2.50;1.50;;;16.80;93.80;;;;;;5014561;28;20418;-74
2022/09/25 04:33:53;;;;;;;5.80;1.60;;;16.80;93.50;;;;;;5013493;28;20428;-74
2022/09/25 04:36:19;;;;;;;2.90;1.23;;;16.80;93.40;;;;;;5004732;28;20976;-72
2022/09/25 04:38:46;;;;;;;3.13;1.43;;;16.80;93.40;;;;;;4977496;28;20414;-72
2022/09/25 04:41:15;;;;;;;4.37;2.03;;;16.80;93.40;;;;;;4996125;28;20427;-72
2022/09/25 04:43:43;;;;;;;2.57;1.50;;;16.80;93.40;;;;;;4986799;28;20457;-71
2022/09/25 04:46:16;;;;;;;4.20;1.30;;;16.80;93.40;;;;;;5011950;28;20458;-72
2022/09/25 04:48:45;;;;;;;4.37;1.60;;;16.80;93.40;;;;;;4990172;28;20430;-72
2022/09/25 04:51:14;;;;;;;4.40;2.00;;;16.80;93.50;;;;;;4994066;28;20422;-72
2022/09/25 04:53:42;;;;;;;3.93;1.70;;;16.80;93.40;;;;;;4977988;28;20494;-71
2022/09/25 04:56:10;;;;;;;2.90;1.43;;;16.80;93.40;;;;;;4999193;28;20441;-71
2022/09/25 04:58:39;;;;;;;6.43;1.80;;;16.80;93.40;;;;;;5013860;28;20976;-71
2022/09/25 05:01:08;;;;;;;2.23;1.47;;;16.80;93.40;;;;;;4990663;28;21105;-71
2022/09/25 05:03:38;;;;;;;2.03;1.20;;;16.80;93.40;;;;;;5001097;28;20480;-71
2022/09/25 05:06:05;;;;;;;2.40;1.33;;;16.80;93.40;;;;;;5008512;28;20442;-72
2022/09/25 05:08:33;;;;;;;2.37;1.47;;;16.80;93.40;;;;;;4986756;28;20451;-72
2022/09/25 05:11:02;;;;;;;3.33;1.50;;;16.80;93.40;;;;;;5003666;28;20482;-71
2022/09/25 05:13:29;;;;;;;6.73;1.50;;;16.80;93.40;;;;;;4994189;28;20434;-71
2022/09/25 05:15:57;;;;;;;4.17;1.40;;;16.70;93.30;;;;;;5008608;28;20482;-71
2022/09/25 05:18:23;;;;;;;5.97;1.80;;;16.80;93.30;;;;;;5012438;28;20421;-71
2022/09/25 05:20:53;;;;;;;4.30;1.97;;;16.70;93.30;;;;;;4984925;28;20452;-72
2022/09/25 05:23:22;;;;;;;1.63;1.07;;;16.70;93.20;;;;;;5012562;28;20529;-71
2022/09/25 05:25:59;;;;;;;1.50;1.20;;;16.70;93.20;;;;;;4998624;28;20816;-72
2022/09/25 05:28:25;;;;;;;2.90;1.50;;;16.70;93.20;;;;;;4987823;28;20525;-71
2022/09/25 05:30:53;;;;;;;2.47;1.40;;;16.70;93.20;;;;;;4995734;28;20509;-72
2022/09/25 05:33:22;;;;;;;1.83;1.37;;;16.70;93.20;;;;;;5012312;28;20508;-72
2022/09/25 05:35:52;;;;;;;3.17;1.47;;;16.70;93.20;;;;;;4998358;28;20556;-72
2022/09/25 05:38:21;;;;;;;3.40;1.43;;;16.70;93.20;;;;;;5003450;28;20433;-71
2022/09/25 05:40:50;;;;;;;3.77;1.27;;;16.70;93.20;;;;;;5002800;28;20488;-72
2022/09/25 05:43:16;;;;;;;3.13;1.50;;;16.70;93.20;;;;;;5012228;28;20473;-72
2022/09/25 05:45:58;;;;;;;2.60;1.30;;;16.70;93.20;;;;;;5000232;28;20482;-71
2022/09/25 05:48:29;;;;;;;2.60;1.70;;;16.70;93.20;;;;;;4991632;28;20407;-72
2022/09/25 05:50:56;;;;;;;2.83;1.17;;;16.70;93.20;;;;;;5002869;28;20935;-72
2022/09/25 05:53:23;;;;;;;1.73;1.20;;;16.70;93.20;;;;;;4992725;28;20445;-71
2022/09/25 05:55:57;;;;;;;2.03;1.37;;;16.60;93.10;;;;;;4992761;28;20936;-72
2022/09/25 05:58:24;;;;;;;1.93;1.20;;;16.60;93.10;;;;;;4992353;28;20511;-72
2022/09/25 06:00:50;;;;;;;3.67;1.40;;;16.60;93.10;;;;;;4992699;28;20440;-72
2022/09/25 06:03:18;;;;;;;5.40;1.67;;;16.60;93.10;;;;;;4993367;28;20458;-72
2022/09/25 06:05:47;;;;;;;3.27;1.47;;;16.60;93.10;;;;;;4992276;28;20456;-72
2022/09/25 06:08:18;;;;;;;3.33;1.30;;;16.60;93.10;;;;;;5001059;28;20766;-72
2022/09/25 06:10:53;;;;;;;2.43;1.47;;;16.60;93.10;;;;;;4985118;28;20486;-72
2022/09/25 06:13:19;;;;;;;4.90;1.40;;;16.60;93.10;;;;;;5011849;28;20444;-72
2022/09/25 06:15:49;;;;;;;7.40;1.90;;;16.60;93.10;;;;;;4999571;28;21003;-72
2022/09/25 06:18:20;;;;;;;3.23;1.87;;;16.60;93.10;;;;;;4991439;28;20411;-72
2022/09/25 06:20:47;;;;;;;2.50;1.60;;;16.60;93.10;;;;;;5003440;28;20938;-72
2022/09/25 06:23:22;;;;;;;2.13;1.53;;;16.60;93.10;;;;;;5011332;28;20475;-72
2022/09/25 06:25:48;;;;;;;2.50;1.63;;;16.60;93.00;;;;;;5005195;28;20496;-72
2022/09/25 06:28:14;;;;;;;3.33;1.60;;;16.60;93.10;;;;;;5012687;28;20772;-72
2022/09/25 06:30:40;;;;;;;4.40;1.57;;;16.60;93.10;;;;;;5002339;28;20932;-72
2022/09/25 06:33:12;;;;;;;2.70;1.30;;;16.60;93.40;;;;;;4995086;28;20888;-72
2022/09/25 06:35:42;;;;;;;3.33;1.57;;;16.60;93.00;;;;;;5002209;28;20489;-72
2022/09/25 06:38:08;;;;;;;3.17;1.90;;;16.60;93.10;;;;;;4976265;28;20478;-72
2022/09/25 06:40:36;;;;;;;2.80;1.40;;;16.60;93.00;;;;;;5012424;28;20763;-72
2022/09/25 06:43:04;;;;;;;3.40;1.67;;;16.60;93.00;;;;;;4997291;28;20460;-72
2022/09/25 06:45:32;;;;;;;4.40;2.07;;;16.60;93.00;;;;;;4992612;28;20581;-72
2022/09/25 06:48:04;;;;;;;6.70;1.43;;;16.60;93.00;;;;;;4975981;28;20963;-72
2022/09/25 06:50:46;;;;;;;6.70;1.80;;;16.60;93.00;;;;;;4984484;28;20521;-72
2022/09/25 06:53:14;;;;;;;4.10;2.17;;;16.60;93.00;;;;;;5001707;28;20441;-72
2022/09/25 06:55:45;;;;;;;1.80;1.60;;;16.60;93.00;;;;;;4991488;28;20470;-72
2022/09/25 06:58:16;;;;;;;2.80;1.40;;;16.60;93.00;;;;;;4999851;28;20945;-72
2022/09/25 07:00:49;;;;;;;3.50;1.50;;;16.50;92.90;;;;;;5000367;28;20490;-72
2022/09/25 07:03:45;;;;;;;2.50;1.80;;;16.50;92.90;;;;;;4972970;28;20477;-72
2022/09/25 07:06:26;;;;;;;3.23;1.60;;;16.50;92.90;;;;;;4990992;28;20455;-72
2022/09/25 07:08:56;;;;;;;5.80;1.60;;;16.60;93.00;;;;;;5011354;28;20466;-72
2022/09/25 07:11:27;;;;;;;2.70;1.67;;;16.50;92.90;;;;;;5014795;28;20829;-72
2022/09/25 07:13:55;;;;;;;2.07;1.37;;;16.50;92.90;;;;;;4982277;28;20506;-73
2022/09/25 07:16:26;;;;;;;2.30;1.60;;;16.50;92.90;;;;;;4991300;28;20518;-72
2022/09/25 07:18:59;;;;;;;3.37;1.60;;;16.50;92.90;;;;;;5006205;28;20421;-72
2022/09/25 07:21:28;;;;;;;4.00;1.63;;;16.50;93.00;;;;;;4978879;28;20436;-75
2022/09/25 07:23:59;;;;;;;2.37;1.67;;;16.50;92.90;;;;;;5019028;28;20457;-75
2022/09/25 07:26:28;;;;;;;3.00;1.63;;;16.50;92.90;;;;;;5032319;28;20434;-75
2022/09/25 07:28:59;;;;;;;4.87;2.00;;;16.50;93.00;;;;;;4982802;28;20437;-74
2022/09/25 07:31:28;;;;;;;4.37;1.93;;;16.50;92.90;;;;;;5007288;28;20489;-75
2022/09/25 07:33:57;;;;;;;3.93;1.63;;;16.50;92.90;;;;;;5010827;28;20471;-75
2022/09/25 07:36:32;;;;;;;5.50;2.13;;;16.50;93.00;;;;;;5010797;28;20496;-74
2022/09/25 07:38:58;;;;;;;4.03;2.20;;;16.50;93.00;;;;;;4992693;28;20422;-74
2022/09/25 07:41:27;;;;;;;4.70;1.97;;;16.50;93.00;;;;;;5012604;28;20421;-74
2022/09/25 07:43:57;;;;;;;5.40;1.83;;;16.50;93.00;;;;;;4990415;28;20489;-74
2022/09/25 07:46:24;;;;;;;2.73;1.43;;;16.50;93.30;;;;;;5022627;28;20468;-74
2022/09/25 07:48:55;;;;;;;3.10;2.00;;;16.40;92.90;;;;;;4993286;28;20446;-74
2022/09/25 07:51:25;;;;;;;4.30;1.77;;;16.50;92.90;;;;;;5003908;28;20472;-74
2022/09/25 07:53:51;;;;;;;3.77;1.90;;;16.50;92.90;;;;;;4998340;28;20442;-74
2022/09/25 07:56:17;;;;;;;3.87;1.80;;;16.50;93.00;;;;;;4973671;28;20524;-74
2022/09/25 07:58:44;;;;;;;3.70;2.07;;;16.50;93.00;;;;;;4995987;28;20437;-74
2022/09/25 08:01:12;;;;;;;6.77;2.40;;;16.50;93.00;;;;;;4986475;28;20476;-74
2022/09/25 08:03:38;;;;;;;4.83;2.17;;;16.50;93.00;;;;;;5008551;28;21004;-74
2022/09/25 08:06:10;;;;;;;5.70;2.33;;;16.50;93.00;;;;;;5009089;28;20481;-74
2022/09/25 08:08:39;;;;;;;5.13;2.57;;;16.50;93.00;;;;;;5008963;28;20438;-74
2022/09/25 08:11:10;;;;;;;3.33;2.10;;;16.50;93.00;;;;;;4982796;28;20433;-74
2022/09/25 08:13:39;;;;;;;3.93;2.40;;;16.50;93.00;;;;;;4984991;28;20796;-74
2022/09/25 08:16:15;;;;;;;5.40;2.33;;;16.50;92.90;;;;;;5013425;28;20520;-74
2022/09/25 08:18:46;;;;;;;2.50;2.10;;;16.50;92.90;;;;;;5005666;28;20427;-74
2022/09/25 08:21:19;;;;;;;3.37;2.30;;;16.50;92.90;;;;;;5007555;28;20459;-74
2022/09/25 08:23:55;;;;;;;7.07;2.60;;;16.50;92.90;;;;;;4995279;28;20481;-74
2022/09/25 08:26:21;;;;;;;3.93;1.97;;;16.50;92.90;;;;;;4993843;28;20494;-74
2022/09/25 08:28:50;;;;;;;3.53;2.10;;;16.50;92.90;;;;;;4993936;28;20430;-74
2022/09/25 08:31:17;;;;;;;3.37;1.80;;;16.50;92.80;;;;;;5015910;28;20506;-74
2022/09/25 08:33:47;;;;;;;5.17;2.23;;;16.50;92.80;;;;;;5010465;28;20984;-74
2022/09/25 08:36:15;;;;;;;6.40;2.40;;;16.50;92.80;;;;;;5012060;28;20472;-74
2022/09/25 08:38:45;;;;;;;5.00;2.40;;;16.50;92.70;;;;;;5013856;28;20573;-74
2022/09/25 08:41:29;;;;;;;4.53;2.00;;;16.50;92.70;;;;;;4983895;28;20496;-74
2022/09/25 08:44:40;;;;;;;6.80;2.27;;;16.50;92.60;;;;;;5069623;23;20510;-71
2022/09/25 08:50:26;;;;;;;5.10;2.20;;;16.60;92.60;;;;;;5034616;28;20405;-71
2022/09/25 08:53:07;;;;;;;4.73;1.77;;;16.60;92.60;;;;;;5014976;28;20438;-71
2022/09/25 08:58:29;;;;;;;4.43;1.93;;;16.60;92.50;;;;;;5016625;28;20536;-71
2022/09/25 09:01:02;;;;;;;9.20;2.20;;;16.60;92.80;;;;;;5034668;28;20471;-71
2022/09/25 09:03:39;;;;;;;4.03;2.17;;;16.60;92.40;;;;;;5033228;28;20467;-71
2022/09/25 09:06:10;;;;;;;8.47;2.40;;;16.60;92.30;;;;;;5033364;28;20459;-71
2022/09/25 09:08:48;;;;;;;3.93;1.60;;;16.60;92.30;;;;;;5017252;28;20448;-71
2022/09/25 09:11:30;;;;;;;3.43;1.60;;;16.60;92.30;;;;;;5016708;28;20441;-71
2022/09/25 09:13:59;;;;;;;8.60;2.50;;;16.70;92.20;;;;;;5033116;28;20870;-71
2022/09/25 09:16:57;;;;;;;5.33;1.60;;;16.70;92.20;;;;;;5033008;28;20448;-73
2022/09/25 09:19:30;;;;;;;3.80;1.60;;;16.70;92.10;;;;;;5001471;28;20439;-71
2022/09/25 09:22:11;;;;;;;5.20;1.47;;;16.70;92.10;;;;;;5014028;28;20947;-72
2022/09/25 09:24:40;;;;;;;5.10;1.73;;;16.80;92.10;;;;;;5021243;28;20467;-71
2022/09/25 09:27:46;;;;;;;2.23;1.43;;;16.80;92.10;;;;;;5033366;28;20425;-71
2022/09/25 09:30:24;;;;;;;4.77;1.63;;;16.80;92.00;;;;;;4992813;28;20429;-71
2022/09/25 09:33:26;;;;;;;2.90;1.60;;;16.80;92.00;;;;;;5011142;28;20967;-72
2022/09/25 09:36:11;;;;;;;1.77;1.50;;;16.80;91.90;;;;;;4983717;28;20432;-72
2022/09/25 09:38:55;;;;;;;3.33;1.70;;;16.80;92.20;;;;;;5033025;28;20429;-71
2022/09/25 09:41:39;;;;;;;3.60;1.40;;;16.90;91.80;;;;;;5033268;28;20440;-70
2022/09/25 09:44:36;;;;;;;5.03;2.17;;;16.90;91.80;;;;;;5029400;28;21011;-70
2022/09/25 09:47:35;;;;;;;4.83;1.67;;;16.90;91.70;;;;;;5013334;28;20443;-70
2022/09/25 09:50:16;;;;;;;2.87;1.67;;;17.00;91.80;;;;;;5013366;28;20430;-72
2022/09/25 09:52:56;;;;;;;4.70;1.67;;;17.00;91.60;;;;;;5003664;28;20489;-74
2022/09/25 09:55:41;;;;;;;3.00;1.60;;;17.00;91.50;;;;;;4982154;28;20440;-71
2022/09/25 09:58:22;;;;;;;5.53;1.60;;;17.00;91.50;;;;;;5033541;28;20758;-71
2022/09/25 10:00:49;;;;;;;3.10;1.30;;;17.00;91.40;;;;;;5032549;28;20756;-72
2022/09/25 10:03:15;;;;;;;2.07;1.27;;;17.10;91.40;;;;;;5033191;28;20487;-72
2022/09/25 10:05:46;;;;;;;4.30;1.70;;;17.10;91.40;;;;;;5016484;28;20496;-72
2022/09/25 10:08:12;;;;;;;2.33;1.40;;;17.10;91.30;;;;;;5016578;28;20432;-72
2022/09/25 10:11:15;;;;;;;4.20;1.70;;;17.10;91.30;;;;;;5005944;28;20515;-72
2022/09/25 10:13:44;;;;;;;3.43;1.40;;;17.10;91.30;;;;;;5028910;28;20493;-72
2022/09/25 10:16:15;;;;;;;2.20;1.33;;;17.10;91.20;;;;;;5012887;28;20491;-71
2022/09/25 10:19:20;;;;;;;2.80;1.53;;;17.20;91.20;;;;;;4995657;28;20446;-72
2022/09/25 10:22:14;;;;;;;1.80;1.47;;;17.20;91.00;;;;;;4971603;28;20432;-72
2022/09/25 10:24:50;;;;;;;4.23;1.50;;;17.20;91.00;;;;;;4956212;28;20842;-72
2022/09/25 10:27:25;;;;;;;4.97;1.40;;;17.20;90.90;;;;;;4998675;28;20476;-72
2022/09/25 10:30:06;;;;;;;2.23;1.40;;;17.30;90.90;;;;;;5012163;28;20424;-71
2022/09/25 10:32:43;;;;;;;2.93;1.50;;;17.30;90.80;;;;;;5029003;28;20478;-72
2022/09/25 10:35:19;;;;;;;3.53;1.60;;;17.30;90.80;;;;;;5012863;28;20814;-72
2022/09/25 10:37:50;;;;;;;3.20;1.70;;;17.30;90.80;;;;;;5012883;28;20917;-71
2022/09/25 10:40:30;;;;;;;3.20;1.60;;;17.30;90.60;;;;;;5012417;28;20440;-72
2022/09/25 10:43:14;;;;;;;3.27;1.13;;;17.40;90.60;;;;;;5012325;28;20817;-72
2022/09/25 10:45:43;;;;;;;2.57;1.33;;;17.40;90.70;;;;;;5013027;28;20882;-71
2022/09/25 10:51:24;;;;;;;2.90;1.57;;;17.40;90.50;;;;;;5007831;28;20473;-72
2022/09/25 10:54:01;;;;;;;7.20;1.83;;;17.40;90.50;;;;;;5028379;28;20438;-71
2022/09/25 10:56:36;;;;;;;2.47;1.53;;;17.50;90.50;;;;;;4993564;28;20439;-72
2022/09/25 10:59:27;;;;;;;3.37;1.70;;;17.50;90.40;;;;;;5011990;28;20552;-72
2022/09/25 11:01:58;;;;;;;3.63;1.60;;;17.50;90.30;;;;;;5013340;28;20403;-72
2022/09/25 11:04:29;;;;;;;4.13;1.47;;;17.60;90.30;;;;;;5012114;28;20449;-72
2022/09/25 11:07:03;;;;;;;1.77;1.50;;;17.60;90.30;;;;;;5013499;28;20447;-72
2022/09/25 11:09:31;;;;;;;2.43;1.60;;;17.50;90.30;;;;;;5012261;28;20755;-72
2022/09/25 11:12:24;;;;;;;2.10;1.40;;;17.60;90.40;;;;;;5012187;28;20442;-72
2022/09/25 11:15:04;;;;;;;3.13;1.90;;;17.60;90.20;;;;;;5012175;28;20435;-72
2022/09/25 11:17:41;;;;;;;3.40;1.60;;;17.70;90.20;;;;;;5013358;28;20403;-72
2022/09/25 11:20:35;;;;;;;4.60;1.83;;;17.70;90.20;;;;;;5018056;28;20411;-72
2022/09/25 11:23:03;;;;;;;4.50;1.80;;;17.70;90.10;;;;;;5031728;28;20466;-72
2022/09/25 11:25:52;;;;;;;4.50;1.87;;;17.70;89.90;;;;;;5015571;28;20430;-73
2022/09/25 11:28:36;;;;;;;5.10;1.83;;;17.80;89.80;;;;;;5031908;28;20952;-72
2022/09/25 11:31:20;;;;;;;2.40;1.53;;;17.80;89.90;;;;;;5032887;28;20415;-73
2022/09/25 11:33:58;;;;;;;3.20;1.87;;;17.80;89.90;;;;;;5031672;28;20787;-73
2022/09/25 11:36:34;;;;;;;2.07;1.40;;;17.80;89.80;;;;;;5031823;28;20450;-73
2022/09/25 11:42:54;;;;;;;2.37;1.63;;;17.90;89.70;;;;;;5028374;28;20475;-72
2022/09/25 11:45:40;;;;;;;4.00;1.87;;;17.90;90.00;;;;;;5030491;28;20458;-73
2022/09/25 11:48:11;;;;;;;4.77;2.03;;;17.90;90.00;;;;;;5035228;28;20410;-73
2022/09/25 11:50:51;;;;;;;4.73;2.03;;;17.90;89.80;;;;;;5035622;28;20931;-73
2022/09/25 11:54:05;;;;;;;4.63;2.10;;;17.90;89.70;;;;;;5035182;28;20974;-73
2022/09/25 11:57:12;;;;;;;3.30;1.50;;;18.00;89.70;;;;;;4994713;28;20464;-73
2022/09/25 12:00:03;;;;;;;3.00;1.70;;;18.00;89.50;;;;;;4978538;28;20467;-73
2022/09/25 12:02:43;;;;;;;3.20;2.17;;;18.00;89.40;;;;;;5035265;28;20422;-74
2022/09/25 12:05:22;;;;;;;5.63;2.30;;;18.00;89.30;;;;;;5034978;28;20437;-73
2022/09/25 12:08:03;;;;;;;2.37;1.80;;;18.00;89.30;;;;;;5036452;28;20848;-72
2022/09/25 12:10:40;;;;;;;3.07;2.13;;;18.00;88.90;;;;;;5034887;28;20434;-73
2022/09/25 12:13:14;;;;;;;3.03;1.83;;;18.10;88.70;;;;;;5034546;28;20446;-73
2022/09/25 12:16:06;;;;;;;3.70;1.90;;;18.10;88.80;;;;;;5035957;28;20455;-73
2022/09/25 12:18:54;;;;;;;3.23;1.97;;;18.10;88.80;;;;;;5034978;28;20419;-73
2022/09/25 12:21:33;;;;;;;4.27;2.10;;;18.10;88.60;;;;;;5034772;28;20438;-73
2022/09/25 12:24:13;;;;;;;2.70;1.80;;;18.10;88.40;;;;;;5034552;28;20466;-73
2022/09/25 12:27:05;;;;;;;2.30;1.23;;;18.10;88.40;;;;;;5034803;28;20968;-73
2022/09/25 12:29:50;;;;;;;3.17;1.50;;;18.10;88.20;;;;;;5035899;28;20457;-73
2022/09/25 12:32:35;;;;;;;2.53;1.70;;;18.10;87.90;;;;;;5035110;28;20407;-73
2022/09/25 12:35:09;;;;;;;4.37;1.80;;;18.10;87.60;;;;;;5034573;28;20451;-73
2022/09/25 12:37:56;;;;;;;2.83;1.63;;;18.20;87.70;;;;;;5035522;28;20435;-73
2022/09/25 12:40:43;;;;;;;3.13;1.83;;;18.10;87.80;;;;;;5035544;28;20451;-73
2022/09/25 12:43:40;;;;;;;4.30;1.97;;;18.20;87.60;;;;;;5034322;28;20506;-73
2022/09/25 12:46:21;;;;;;;3.10;1.80;;;18.20;87.60;;;;;;5049259;28;20539;-73
2022/09/25 12:49:04;;;;;;;3.70;1.53;;;18.20;87.90;;;;;;5035334;28;20904;-73
2022/09/25 12:51:43;;;;;;;1.83;1.60;;;18.20;87.50;;;;;;5034304;28;20905;-73
2022/09/25 12:54:22;;;;;;;3.17;2.10;;;18.20;87.00;;;;;;5035377;28;20883;-73
2022/09/25 12:57:01;;;;;;;2.80;2.20;;;18.20;86.70;;;;;;5033483;28;20466;-73
2022/09/25 12:59:53;;;;;;;1.93;1.60;;;18.30;87.20;;;;;;5035522;28;20430;-73
2022/09/25 13:02:28;;;;;;;2.30;1.60;;;18.30;87.20;;;;;;5034146;28;20426;-73
2022/09/25 13:05:05;;;;;;;2.30;1.63;;;18.30;86.90;;;;;;5035078;28;20798;-73
2022/09/25 13:07:48;;;;;;;2.63;1.50;;;18.30;86.60;;;;;;5017433;28;20476;-73
2022/09/25 13:10:20;;;;;;;4.50;1.60;;;18.30;86.60;;;;;;5035068;28;20484;-73
2022/09/25 13:12:47;;;;;;;3.30;1.50;;;18.30;87.10;;;;;;5033965;28;20435;-73
2022/09/25 13:15:22;;;;;;;3.43;1.83;;;18.30;86.20;;;;;;5017463;28;20451;-73
2022/09/25 13:17:51;;;;;;;2.63;1.80;;;18.40;86.50;;;;;;5033785;28;20488;-73
2022/09/25 13:20:30;;;;;;;3.10;1.63;;;18.40;86.30;;;;;;5033675;28;20769;-73
2022/09/25 13:23:14;;;;;;;4.27;1.83;;;18.40;86.50;;;;;;5017574;28;20466;-73
2022/09/25 13:25:56;;;;;;;3.33;2.23;;;18.40;85.40;;;;;;5033488;28;20453;-73
2022/09/25 13:28:37;;;;;;;3.40;1.90;;;18.40;85.10;;;;;;5033208;28;20462;-73
2022/09/25 13:31:20;;;;;;;3.53;1.50;;;18.40;85.30;;;;;;5033498;28;20805;-73
2022/09/25 13:34:05;;;;;;;2.83;1.63;;;18.50;85.30;;;;;;5033937;28;20916;-73
2022/09/25 13:36:40;;;;;;;1.50;1.30;;;18.50;85.40;;;;;;5033482;28;20947;-73
2022/09/25 13:42:14;;;;;;;4.17;1.33;;;18.50;84.90;;;;;;5033430;28;20423;-73
2022/09/25 13:44:43;;;;;;;2.40;1.20;;;18.50;84.60;;;;;;5032973;28;20886;-73
2022/09/25 13:47:28;;;;;;;1.60;1.10;;;18.50;84.70;;;;;;5033020;28;20770;-73
2022/09/25 13:50:09;;;;;;;5.00;1.40;;;18.50;84.90;;;;;;5033150;28;20415;-73
2022/09/25 13:52:35;;;;;;;2.90;1.50;;;18.60;85.20;;;;;;5033201;28;20842;-73